Time;durP1;ratioP1;P1;durP2;ratioP2;P2;SDS_P1;SDS_P2;PMS_P1;PMS_P2;Temp;Humidity;BMP_temperature;BMP_pressure;BME280_temperature;BME280_humidity;BME280_pressure;Samples;Min_cycle;Max_cycle;Signal;HPM_P1;HPM_P2
2022/03/03 00:00:16;;;;;;;26.77;15.50;;;1.60;99.90;0.60;100736;;;;569687;251;24119;-79
2022/03/03 00:02:40;;;;;;;30.23;15.83;;;1.60;99.90;0.60;100738;;;;569320;251;24159;-79
2022/03/03 00:05:08;;;;;;;29.10;15.60;;;1.70;99.90;0.70;100733;;;;569719;251;24133;-81
2022/03/03 00:07:36;;;;;;;35.10;15.67;;;1.70;99.90;0.70;100736;;;;569589;251;24143;-82
2022/03/03 00:10:07;;;;;;;34.57;15.37;;;1.70;99.90;0.70;100737;;;;569338;251;24191;-79
2022/03/03 00:12:33;;;;;;;35.23;15.33;;;1.70;99.90;0.70;100727;;;;558516;251;24116;-80
2022/03/03 00:15:01;;;;;;;27.43;15.27;;;1.70;99.90;0.60;100738;;;;569409;251;24149;-81
2022/03/03 00:17:29;;;;;;;24.87;14.20;;;1.70;99.90;0.70;100740;;;;561278;251;24125;-80
2022/03/03 00:19:57;;;;;;;23.17;12.73;;;1.70;99.90;0.60;100736;;;;561308;251;24107;-80
2022/03/03 00:22:24;;;;;;;26.40;12.90;;;1.70;99.90;0.60;100736;;;;558555;251;24146;-80
2022/03/03 00:24:53;;;;;;;25.77;14.43;;;1.60;99.90;0.60;100735;;;;569721;251;24131;-80
2022/03/03 00:27:20;;;;;;;27.23;12.83;;;1.60;99.90;0.60;100727;;;;569788;249;24117;-80
2022/03/03 00:29:48;;;;;;;26.67;12.33;;;1.60;99.90;0.60;100727;;;;571339;251;24160;-78
2022/03/03 00:32:17;;;;;;;19.07;11.27;;;1.60;99.90;0.50;100718;;;;570877;251;24104;-80
2022/03/03 00:34:45;;;;;;;18.93;10.73;;;1.60;99.90;0.50;100716;;;;570478;251;24159;-79
2022/03/03 00:37:13;;;;;;;18.60;11.37;;;1.50;99.90;0.50;100714;;;;560792;251;24160;-82
2022/03/03 00:39:41;;;;;;;27.73;11.77;;;1.50;99.90;0.40;100712;;;;570275;251;24125;-84
2022/03/03 00:42:09;;;;;;;20.10;11.73;;;1.40;99.90;0.40;100719;;;;570330;251;24133;-84
2022/03/03 00:44:36;;;;;;;22.17;10.47;;;1.40;99.90;0.40;100721;;;;570161;251;24121;-79
2022/03/03 00:47:09;;;;;;;17.80;11.20;;;1.40;99.90;0.30;100717;;;;569932;251;24206;-81
2022/03/03 00:49:34;;;;;;;21.33;10.37;;;1.40;99.90;0.30;100711;;;;569380;248;24137;-80
2022/03/03 00:52:02;;;;;;;19.50;10.90;;;1.40;99.90;0.30;100718;;;;569459;251;24144;-80
2022/03/03 00:54:30;;;;;;;17.00;9.33;;;1.30;99.90;0.30;100711;;;;569441;251;24193;-80
2022/03/03 00:56:58;;;;;;;16.30;10.13;;;1.40;99.90;0.30;100703;;;;569578;251;24146;-79
2022/03/03 00:59:25;;;;;;;28.85;16.67;;;1.30;99.90;0.30;100704;;;;564449;251;35503;-80
2022/03/03 01:01:54;;;;;;;22.17;12.30;;;1.30;99.90;0.20;100705;;;;558763;251;24161;-79
2022/03/03 01:04:22;;;;;;;17.67;9.73;;;1.30;99.90;0.20;100701;;;;569283;251;24143;-80
2022/03/03 01:06:52;;;;;;;21.23;10.80;;;1.20;99.90;0.20;100697;;;;559952;251;24219;-80
2022/03/03 01:09:20;;;;;;;15.53;7.83;;;1.20;99.90;0.10;100698;;;;560745;251;25238;-80
2022/03/03 01:11:45;;;;;;;16.77;10.00;;;1.10;99.90;0.10;100703;;;;560825;251;25174;-80
2022/03/03 01:14:16;;;;;;;17.33;9.73;;;1.10;99.90;0.00;100713;;;;569611;251;24108;-80
2022/03/03 01:16:41;;;;;;;16.57;9.03;;;1.10;99.90;0.00;100698;;;;565070;251;24136;-81
2022/03/03 01:19:09;;;;;;;17.43;8.87;;;1.10;99.90;0.00;100696;;;;569362;251;24174;-80
2022/03/03 01:21:37;;;;;;;25.73;9.47;;;1.10;99.90;0.10;100702;;;;569259;251;24099;-81
2022/03/03 01:24:05;;;;;;;18.77;9.07;;;1.10;99.90;0.10;100699;;;;569177;251;24118;-81
2022/03/03 01:26:33;;;;;;;20.93;9.83;;;1.10;99.90;0.10;100699;;;;569252;251;24107;-79
2022/03/03 01:29:00;;;;;;;17.03;8.27;;;1.10;99.90;0.10;100705;;;;569229;251;24102;-81
2022/03/03 01:31:32;;;;;;;19.70;8.70;;;1.10;99.90;0.10;100696;;;;569348;251;24107;-80
2022/03/03 01:33:56;;;;;;;20.47;9.60;;;1.20;99.90;0.10;100700;;;;568984;251;24140;-79
2022/03/03 01:36:24;;;;;;;15.47;7.67;;;1.20;99.90;0.10;100710;;;;569181;251;24108;-80
2022/03/03 01:38:52;;;;;;;19.53;7.93;;;1.20;99.90;0.10;100707;;;;569285;251;24118;-79
2022/03/03 01:41:21;;;;;;;18.77;7.83;;;1.10;99.90;0.10;100699;;;;570667;251;24107;-80
2022/03/03 01:43:48;;;;;;;13.60;7.43;;;1.10;99.90;0.10;100701;;;;570266;251;24112;-80
2022/03/03 01:46:16;;;;;;;15.50;7.90;;;1.10;99.90;0.10;100708;;;;570012;251;24147;-79
2022/03/03 01:48:46;;;;;;;13.50;7.93;;;1.10;99.90;0.10;100708;;;;570189;247;24146;-79
2022/03/03 01:51:15;;;;;;;16.00;7.63;;;1.10;99.90;0.10;100697;;;;570141;251;24121;-79
2022/03/03 01:53:42;;;;;;;14.17;7.63;;;1.10;99.90;0.10;100698;;;;570071;251;24132;-79
2022/03/03 01:56:10;;;;;;;13.80;8.07;;;1.10;99.90;0.10;100694;;;;567517;251;24106;-81
2022/03/03 01:58:38;;;;;;;17.53;7.60;;;1.10;99.90;0.10;100693;;;;569973;251;24122;-83
2022/03/03 02:01:09;;;;;;;15.83;8.53;;;1.10;99.90;0.10;100693;;;;558614;251;24155;-84
2022/03/03 02:03:38;;;;;;;8.90;6.20;;;1.20;99.90;0.10;100690;;;;569775;251;24130;-83
2022/03/03 02:06:06;;;;;;;19.33;7.97;;;1.10;99.90;0.10;100684;;;;569567;251;24190;-84
2022/03/03 02:08:34;;;;;;;18.10;9.23;;;1.20;99.90;0.10;100686;;;;559748;251;24391;-84
2022/03/03 02:11:02;;;;;;;13.40;6.80;;;1.20;99.90;0.10;100689;;;;569586;251;24132;-83
2022/03/03 02:13:26;;;;;;;19.93;9.40;;;1.20;99.90;0.10;100692;;;;570596;251;24162;-81
2022/03/03 02:15:54;;;;;;;21.67;10.03;;;1.20;99.90;0.10;100683;;;;560213;251;25271;-83
2022/03/03 02:18:22;;;;;;;16.77;8.23;;;1.20;99.90;0.10;100684;;;;569363;251;24135;-81
2022/03/03 02:20:50;;;;;;;14.33;7.33;;;1.20;99.90;0.10;100668;;;;560799;251;24100;-84
2022/03/03 02:23:18;;;;;;;11.10;6.70;;;1.10;99.90;0.10;100686;;;;569664;251;24102;-82
2022/03/03 02:25:49;;;;;;;20.20;7.07;;;1.10;99.90;0.10;100680;;;;569638;251;24150;-81
2022/03/03 02:28:15;;;;;;;13.37;7.43;;;1.10;99.90;0.10;100678;;;;558499;251;24163;-79
2022/03/03 02:30:42;;;;;;;10.73;6.33;;;1.10;99.90;0.10;100675;;;;569728;251;24128;-83
2022/03/03 02:33:11;;;;;;;15.13;7.80;;;1.10;99.90;0.10;100668;;;;569759;251;24122;-82
2022/03/03 02:35:38;;;;;;;14.27;7.17;;;1.10;99.90;0.10;100661;;;;569788;251;24127;-82
2022/03/03 02:38:06;;;;;;;11.67;7.23;;;1.10;99.90;0.10;100664;;;;569894;251;24187;-82
2022/03/03 02:40:34;;;;;;;14.13;7.60;;;1.10;99.90;0.10;100656;;;;570260;251;24103;-80
2022/03/03 02:43:02;;;;;;;10.37;6.30;;;1.10;99.90;0.10;100652;;;;570077;251;24130;-82
2022/03/03 02:45:31;;;;;;;14.97;6.07;;;1.10;99.90;0.10;100660;;;;570021;251;24123;-81
2022/03/03 02:47:59;;;;;;;9.90;5.60;;;1.10;99.90;0.00;100650;;;;570038;251;24110;-80
2022/03/03 02:50:28;;;;;;;13.90;5.40;;;1.10;99.90;0.10;100646;;;;569476;248;24156;-81
2022/03/03 02:52:58;;;;;;;11.23;6.07;;;1.10;99.90;0.10;100645;;;;567331;251;24133;-83
2022/03/03 02:55:23;;;;;;;17.90;7.97;;;1.10;99.90;0.10;100637;;;;570285;251;24109;-83
2022/03/03 02:57:55;;;;;;;17.13;8.10;;;1.10;99.90;0.10;100644;;;;570078;251;24220;-83
2022/03/03 03:00:26;;;;;;;13.30;6.97;;;1.10;99.90;0.10;100643;;;;570026;251;24109;-84
2022/03/03 03:02:57;;;;;;;12.50;6.23;;;1.10;99.90;0.00;100643;;;;569768;251;24111;-85
2022/03/03 03:05:21;;;;;;;11.63;6.50;;;1.10;99.90;0.00;100629;;;;559416;251;24135;-81
2022/03/03 03:07:49;;;;;;;9.97;5.80;;;1.10;99.90;0.00;100620;;;;569842;251;24152;-83
2022/03/03 03:10:21;;;;;;;17.50;7.43;;;1.10;99.90;0.00;100620;;;;569561;251;24131;-81
2022/03/03 03:12:45;;;;;;;11.50;5.67;;;1.10;99.90;0.00;100622;;;;570244;251;24124;-80
2022/03/03 03:15:16;;;;;;;12.70;6.40;;;1.10;99.90;0.00;100599;;;;570735;251;24157;-79
2022/03/03 03:17:45;;;;;;;12.80;6.10;;;1.00;99.90;0.00;100600;;;;569955;251;24150;-78
2022/03/03 03:20:11;;;;;;;12.20;7.17;;;1.00;99.90;0.00;100611;;;;569633;251;24122;-83
2022/03/03 03:22:41;;;;;;;15.70;7.20;;;1.00;99.90;0.00;100609;;;;559617;251;24104;-81
2022/03/03 03:25:10;;;;;;;14.73;6.67;;;1.00;99.90;0.00;100599;;;;561067;251;24111;-83
2022/03/03 03:27:34;;;;;;;11.93;6.27;;;1.00;99.90;0.00;100592;;;;569215;251;24130;-84
2022/03/03 03:30:02;;;;;;;13.23;6.50;;;1.00;99.90;0.00;100592;;;;569312;251;24138;-85
2022/03/03 03:32:30;;;;;;;10.60;5.43;;;1.00;99.90;-0.10;100594;;;;569308;251;24124;-83
2022/03/03 03:34:58;;;;;;;13.43;5.57;;;1.00;99.90;-0.10;100592;;;;561082;251;24225;-83
2022/03/03 03:37:29;;;;;;;13.87;5.70;;;1.00;99.90;-0.10;100588;;;;560964;251;24233;-80
2022/03/03 03:39:54;;;;;;;17.23;6.47;;;1.00;99.90;-0.10;100589;;;;558432;251;24107;-83
2022/03/03 03:42:22;;;;;;;13.47;5.87;;;0.90;99.90;-0.10;100588;;;;561084;251;24122;-84
2022/03/03 03:44:50;;;;;;;11.53;5.03;;;0.90;99.90;-0.10;100571;;;;560939;251;24104;-83
2022/03/03 03:47:18;;;;;;;9.50;5.23;;;0.90;99.90;-0.20;100568;;;;559465;248;24131;-82
2022/03/03 03:49:46;;;;;;;12.27;6.50;;;0.90;99.90;-0.20;100567;;;;561091;251;24120;-84
2022/03/03 03:52:18;;;;;;;9.50;5.70;;;0.90;99.90;-0.20;100575;;;;558877;251;24248;-83
2022/03/03 03:54:42;;;;;;;16.17;8.07;;;0.80;99.90;-0.20;100580;;;;561111;251;24176;-85
2022/03/03 03:57:10;;;;;;;22.60;8.37;;;0.80;99.90;-0.30;100581;;;;560989;251;24116;-83
2022/03/03 03:59:41;;;;;;;11.80;6.83;;;0.80;99.90;-0.30;100559;;;;569506;251;24131;-85
2022/03/03 04:02:07;;;;;;;13.70;6.97;;;0.80;99.90;-0.30;100563;;;;558811;249;25160;-84
2022/03/03 04:04:35;;;;;;;14.07;7.80;;;0.70;99.90;-0.30;100569;;;;570935;250;24111;-83
2022/03/03 04:07:04;;;;;;;13.20;6.37;;;0.70;99.90;-0.30;100562;;;;561922;251;24126;-84
2022/03/03 04:09:32;;;;;;;10.30;5.43;;;0.70;99.90;-0.30;100574;;;;559993;251;24183;-84
2022/03/03 04:12:02;;;;;;;11.20;6.00;;;0.70;99.90;-0.40;100573;;;;570065;251;24144;-84
2022/03/03 04:14:31;;;;;;;9.97;5.77;;;0.70;99.90;-0.40;100571;;;;559650;251;24111;-80
2022/03/03 04:16:56;;;;;;;17.33;5.33;;;0.70;99.90;-0.40;100562;;;;560104;251;24117;-81
2022/03/03 04:19:24;;;;;;;11.93;5.63;;;0.60;99.90;-0.40;100553;;;;570239;251;24174;-81
2022/03/03 04:21:52;;;;;;;17.52;10.02;;;0.60;99.90;-0.40;100550;;;;556580;251;35467;-82
2022/03/03 04:24:24;;;;;;;14.80;7.57;;;0.60;99.90;-0.50;100559;;;;561149;251;24158;-84
2022/03/03 04:26:48;;;;;;;12.20;6.43;;;0.60;99.90;-0.50;100571;;;;559061;251;24107;-85
2022/03/03 04:29:16;;;;;;;13.87;6.80;;;0.60;99.90;-0.50;100561;;;;559705;251;24166;-84
2022/03/03 04:31:45;;;;;;;10.37;6.30;;;0.50;99.90;-0.50;100571;;;;561172;251;24106;-83
2022/03/03 04:34:13;;;;;;;15.97;7.03;;;0.50;99.90;-0.50;100563;;;;561135;251;24225;-80
2022/03/03 04:36:41;;;;;;;12.83;6.70;;;0.50;99.90;-0.50;100567;;;;561166;251;24172;-80
2022/03/03 04:39:08;;;;;;;11.60;6.07;;;0.60;99.90;-0.50;100568;;;;560960;251;24104;-82
2022/03/03 04:41:36;;;;;;;14.33;6.87;;;0.60;99.90;-0.60;100563;;;;559414;251;24136;-81
2022/03/03 04:44:07;;;;;;;13.10;7.23;;;0.50;99.90;-0.60;100555;;;;558566;251;24109;-82
2022/03/03 04:46:33;;;;;;;17.03;6.00;;;0.40;99.90;-0.70;100558;;;;559114;251;24122;-80
2022/03/03 04:49:05;;;;;;;15.83;7.43;;;0.40;99.90;-0.70;100563;;;;559267;251;24139;-82
2022/03/03 04:51:32;;;;;;;14.60;6.87;;;0.40;99.90;-0.70;100570;;;;559111;251;26333;-80
2022/03/03 04:53:59;;;;;;;16.17;6.13;;;0.40;99.90;-0.70;100566;;;;560948;251;24128;-80
2022/03/03 04:56:27;;;;;;;10.03;5.43;;;0.30;99.90;-0.80;100565;;;;560823;251;24155;-80
2022/03/03 04:58:55;;;;;;;12.60;6.80;;;0.30;99.90;-0.80;100564;;;;560979;251;24111;-82
2022/03/03 05:01:23;;;;;;;10.43;5.90;;;0.30;99.90;-0.80;100558;;;;560896;251;24122;-79
2022/03/03 05:03:51;;;;;;;12.57;5.70;;;0.30;99.90;-0.80;100565;;;;560912;251;24122;-80
2022/03/03 05:06:22;;;;;;;15.87;7.13;;;0.30;99.90;-0.80;100568;;;;559279;251;24177;-79
2022/03/03 05:08:48;;;;;;;9.60;5.90;;;0.30;99.90;-0.80;100571;;;;560725;251;24152;-80
2022/03/03 05:11:16;;;;;;;11.20;5.70;;;0.20;99.90;-0.80;100566;;;;560897;251;24104;-78
2022/03/03 05:13:43;;;;;;;17.77;5.23;;;0.30;99.90;-0.80;100566;;;;560960;249;24104;-81
2022/03/03 05:16:14;;;;;;;16.07;6.90;;;0.30;99.90;-0.80;100569;;;;562346;251;24094;-81
2022/03/03 05:18:39;;;;;;;16.50;6.93;;;0.30;99.90;-0.80;100563;;;;570121;251;24159;-81
2022/03/03 05:21:08;;;;;;;14.17;6.37;;;0.30;99.90;-0.80;100567;;;;561762;251;24104;-80
2022/03/03 05:23:36;;;;;;;11.30;5.90;;;0.30;99.90;-0.70;100574;;;;559583;251;24108;-82
2022/03/03 05:26:04;;;;;;;14.47;6.40;;;0.30;99.90;-0.70;100582;;;;561828;251;24115;-81
2022/03/03 05:28:32;;;;;;;13.27;6.37;;;0.30;99.90;-0.70;100583;;;;560187;251;24126;-80
2022/03/03 05:31:00;;;;;;;16.60;6.37;;;0.30;99.90;-0.70;100572;;;;560285;251;24252;-81
2022/03/03 05:33:31;;;;;;;20.77;10.15;;;0.20;99.90;-0.70;100570;;;;556866;251;35528;-82
2022/03/03 05:35:58;;;;;;;14.70;7.30;;;0.40;99.90;-0.60;100580;;;;569868;251;24105;-84
2022/03/03 05:38:26;;;;;;;15.73;6.07;;;0.40;99.90;-0.60;100581;;;;560395;251;24134;-81
2022/03/03 05:40:54;;;;;;;11.17;5.83;;;0.50;99.90;-0.60;100577;;;;561698;251;24114;-80
2022/03/03 05:43:25;;;;;;;14.70;6.17;;;0.50;99.90;-0.60;100576;;;;560300;251;24168;-80
2022/03/03 05:45:50;;;;;;;13.47;5.77;;;0.50;99.90;-0.50;100574;;;;559494;251;24174;-81
2022/03/03 05:48:19;;;;;;;13.70;6.57;;;0.50;99.90;-0.50;100577;;;;560041;251;24112;-80
2022/03/03 05:50:46;;;;;;;14.80;5.40;;;0.60;99.90;-0.50;100573;;;;561004;251;24132;-81
2022/03/03 05:53:14;;;;;;;17.43;7.10;;;0.60;99.90;-0.50;100571;;;;560839;251;24135;-80
2022/03/03 05:55:42;;;;;;;22.00;11.23;;;0.60;99.90;-0.40;100571;;;;564247;251;46019;-80
2022/03/03 05:58:16;;;;;;;11.83;7.27;;;0.70;99.90;-0.40;100588;;;;560606;251;24126;-79
2022/03/03 06:00:47;;;;;;;17.40;7.77;;;0.70;99.90;-0.40;100609;;;;560853;251;24206;-80
2022/03/03 06:03:16;;;;;;;15.77;7.20;;;0.70;99.90;-0.30;100622;;;;561041;251;24161;-79
2022/03/03 06:05:51;;;;;;;14.23;5.77;;;0.80;99.90;-0.30;100605;;;;560860;251;24121;-79
2022/03/03 06:08:26;;;;;;;12.27;6.37;;;0.80;99.90;-0.30;100606;;;;560598;251;24175;-80
2022/03/03 06:10:52;;;;;;;10.97;5.80;;;0.80;99.90;-0.20;100613;;;;560854;251;24161;-80
2022/03/03 06:13:28;;;;;;;12.13;7.10;;;0.80;99.90;-0.20;100619;;;;559308;251;25162;-79
2022/03/03 06:15:57;;;;;;;13.77;6.63;;;0.90;99.90;-0.20;100625;;;;558330;251;24125;-80
2022/03/03 06:18:25;;;;;;;10.60;6.03;;;0.90;99.90;-0.20;100627;;;;560820;251;24162;-79
2022/03/03 06:20:53;;;;;;;13.93;7.27;;;0.80;99.90;-0.20;100637;;;;560831;251;24174;-79
2022/03/03 06:23:22;;;;;;;17.23;7.97;;;0.90;99.90;-0.10;100626;;;;570823;251;24128;-78
2022/03/03 06:26:05;;;;;;;17.70;8.20;;;0.90;99.90;-0.10;100618;;;;570030;250;24209;-80
2022/03/03 06:28:33;;;;;;;17.63;6.97;;;1.00;99.90;0.00;100623;;;;562299;251;24111;-79
2022/03/03 06:31:01;;;;;;;22.77;9.27;;;1.00;99.90;0.00;100629;;;;567986;251;24228;-80
2022/03/03 06:33:29;;;;;;;25.12;13.90;;;1.10;99.90;0.00;100618;;;;557119;251;35460;-80
2022/03/03 06:35:58;;;;;;;15.33;8.63;;;1.10;99.90;0.10;100622;;;;570209;251;24221;-81
2022/03/03 06:38:26;;;;;;;15.03;8.23;;;1.10;99.90;0.10;100614;;;;570144;251;24113;-80
2022/03/03 06:40:55;;;;;;;14.60;6.43;;;1.10;99.90;0.10;100613;;;;560909;251;24103;-81
2022/03/03 06:43:22;;;;;;;15.13;6.17;;;1.20;99.90;0.20;100613;;;;570085;251;24173;-81
2022/03/03 06:45:50;;;;;;;10.00;6.07;;;1.30;99.90;0.20;100613;;;;561028;251;24177;-81
2022/03/03 06:48:19;;;;;;;16.07;6.70;;;1.20;99.90;0.20;100608;;;;569753;251;24205;-81
2022/03/03 06:50:46;;;;;;;19.70;7.50;;;1.30;99.90;0.30;100622;;;;569348;248;24173;-81
2022/03/03 06:53:14;;;;;;;12.93;6.60;;;1.30;99.90;0.30;100620;;;;569681;251;24135;-85
2022/03/03 06:55:43;;;;;;;14.47;6.20;;;1.40;99.90;0.40;100618;;;;571334;251;24315;-80
2022/03/03 06:58:11;;;;;;;9.43;6.63;;;1.40;99.90;0.40;100612;;;;570133;251;24173;-80
2022/03/03 07:00:39;;;;;;;11.40;6.73;;;1.50;99.90;0.50;100614;;;;569857;251;24125;-80
2022/03/03 07:03:07;;;;;;;10.10;6.17;;;1.50;99.90;0.60;100622;;;;569651;251;24117;-81
2022/03/03 07:05:35;;;;;;;14.83;7.90;;;1.60;99.90;0.60;100624;;;;569665;251;25217;-80
2022/03/03 07:08:02;;;;;;;12.43;6.47;;;1.60;99.90;0.60;100618;;;;569714;251;24170;-79
2022/03/03 07:10:30;;;;;;;16.77;7.13;;;1.60;99.90;0.70;100613;;;;569742;251;29504;-79
2022/03/03 07:13:02;;;;;;;15.13;6.97;;;1.70;99.90;0.70;100630;;;;569713;251;24115;-80
2022/03/03 07:15:26;;;;;;;14.17;6.70;;;1.70;99.90;0.70;100635;;;;561183;251;24106;-82
2022/03/03 07:17:56;;;;;;;13.57;6.60;;;1.80;99.90;0.70;100629;;;;560510;251;24124;-81
2022/03/03 07:20:54;;;;;;;11.10;6.70;;;1.80;99.90;0.80;100629;;;;560773;251;24158;-83
2022/03/03 07:23:37;;;;;;;12.53;6.10;;;1.80;99.90;0.80;100630;;;;569345;251;24171;-82
2022/03/03 07:26:08;;;;;;;15.43;6.73;;;1.80;99.90;0.80;100631;;;;569719;251;24119;-83
2022/03/03 07:28:36;;;;;;;13.37;6.30;;;1.80;99.90;0.90;100629;;;;569745;251;24228;-84
2022/03/03 07:31:04;;;;;;;23.77;11.57;;;1.90;99.90;0.90;100615;;;;564438;251;46441;-81
2022/03/03 07:33:44;;;;;;;17.23;9.43;;;1.90;99.90;0.90;100617;;;;560928;251;24131;-82
2022/03/03 07:36:11;;;;;;;16.47;7.60;;;2.00;99.90;1.00;100626;;;;561534;251;24099;-82
2022/03/03 07:38:39;;;;;;;13.40;8.27;;;2.00;99.90;1.10;100631;;;;570690;250;24114;-82
2022/03/03 07:41:08;;;;;;;13.83;7.27;;;2.20;99.90;1.20;100623;;;;568082;251;24120;-80
2022/03/03 07:43:36;;;;;;;21.53;9.77;;;2.20;99.90;1.30;100628;;;;570442;251;24114;-85
2022/03/03 07:46:04;;;;;;;17.67;9.50;;;2.30;99.90;1.40;100639;;;;570396;251;24125;-82
2022/03/03 07:48:35;;;;;;;14.23;8.33;;;2.40;99.90;1.40;100632;;;;570154;251;24134;-79
2022/03/03 07:51:01;;;;;;;16.80;8.00;;;2.50;99.90;1.50;100612;;;;560625;251;24131;-83
2022/03/03 07:53:29;;;;;;;15.23;6.17;;;2.60;99.90;1.60;100611;;;;569773;251;25256;-83
2022/03/03 07:55:57;;;;;;;13.27;6.87;;;2.60;99.90;1.60;100613;;;;569651;251;24123;-84
2022/03/03 07:58:27;;;;;;;17.10;7.53;;;2.70;99.90;1.70;100617;;;;569767;251;24121;-81
2022/03/03 08:00:55;;;;;;;11.10;6.13;;;2.70;99.90;1.70;100627;;;;561446;251;24114;-83
2022/03/03 08:03:26;;;;;;;12.40;6.70;;;2.70;99.90;1.60;100620;;;;569713;251;24141;-79
2022/03/03 08:05:55;;;;;;;12.57;6.83;;;2.70;99.90;1.70;100624;;;;561377;251;24150;-81
2022/03/03 08:08:23;;;;;;;14.33;7.03;;;2.70;99.90;1.70;100624;;;;569941;251;25523;-81
2022/03/03 08:10:51;;;;;;;14.97;7.70;;;2.70;99.90;1.80;100620;;;;570031;251;24146;-82
2022/03/03 08:13:19;;;;;;;22.30;7.07;;;2.80;99.90;1.90;100622;;;;569369;251;24145;-84
2022/03/03 08:15:49;;;;;;;14.37;6.93;;;2.90;99.90;2.00;100624;;;;569590;251;24139;-85
2022/03/03 08:18:17;;;;;;;18.93;9.77;;;3.00;99.90;2.10;100617;;;;570119;251;24106;-81
2022/03/03 08:20:46;;;;;;;19.77;11.80;;;3.10;99.90;2.20;100620;;;;564852;251;35438;-81
2022/03/03 08:23:14;;;;;;;16.67;9.53;;;3.10;99.90;2.10;100622;;;;569774;251;24131;-82
2022/03/03 08:25:42;;;;;;;18.30;9.27;;;3.20;99.90;2.20;100620;;;;569289;251;24137;-81
2022/03/03 08:28:10;;;;;;;18.33;9.67;;;3.20;99.90;2.20;100630;;;;569583;251;24184;-80
2022/03/03 08:30:40;;;;;;;18.13;8.27;;;3.20;99.90;2.20;100624;;;;569689;251;24104;-81
2022/03/03 08:33:20;;;;;;;15.97;8.20;;;3.20;99.90;2.30;100625;;;;569682;251;24143;-82
2022/03/03 08:35:51;;;;;;;16.47;8.67;;;3.20;99.90;2.30;100613;;;;561448;251;24169;-79
2022/03/03 08:38:25;;;;;;;13.17;6.53;;;3.30;99.90;2.30;100619;;;;569849;251;24117;-81
2022/03/03 08:40:53;;;;;;;22.00;12.97;;;3.30;99.90;2.30;100633;;;;561086;251;24123;-80
2022/03/03 08:43:21;;;;;;;15.73;9.10;;;3.30;99.90;2.20;100633;;;;569663;251;24123;-79
2022/03/03 08:45:49;;;;;;;18.57;9.30;;;3.30;99.90;2.30;100637;;;;569772;251;24181;-82
2022/03/03 08:48:18;;;;;;;17.67;9.10;;;3.30;99.90;2.30;100632;;;;566683;251;24137;-81
2022/03/03 08:50:48;;;;;;;22.13;11.47;;;3.30;99.90;2.40;100635;;;;571251;247;24169;-81
2022/03/03 08:53:13;;;;;;;20.73;10.57;;;3.40;99.90;2.50;100622;;;;570186;251;24197;-80
2022/03/03 08:55:41;;;;;;;22.17;10.83;;;3.40;99.90;2.60;100624;;;;570210;251;24105;-83
2022/03/03 08:58:10;;;;;;;29.67;13.77;;;3.60;99.90;2.70;100634;;;;570156;251;25180;-83
2022/03/03 09:00:39;;;;;;;21.27;10.30;;;3.70;99.90;2.80;100640;;;;570116;251;24117;-84
2022/03/03 09:03:07;;;;;;;19.30;10.07;;;3.70;99.90;2.80;100643;;;;570090;251;24106;-82
2022/03/03 09:05:34;;;;;;;24.80;11.13;;;3.80;99.90;2.90;100647;;;;561186;251;24154;-81
2022/03/03 09:08:06;;;;;;;24.60;9.23;;;3.80;99.90;2.90;100642;;;;570062;251;24155;-80
2022/03/03 09:10:30;;;;;;;26.20;13.07;;;3.90;99.90;3.00;100644;;;;564436;251;35439;-80
2022/03/03 09:13:00;;;;;;;19.30;9.60;;;3.90;99.90;3.00;100644;;;;569709;251;24151;-83
2022/03/03 09:15:30;;;;;;;19.80;9.50;;;3.90;99.90;3.00;100638;;;;569618;251;24137;-81
2022/03/03 09:17:54;;;;;;;33.73;12.97;;;3.90;99.90;3.00;100642;;;;569426;251;24118;-82
2022/03/03 09:20:23;;;;;;;20.27;9.67;;;4.10;99.90;3.20;100642;;;;569649;251;25177;-81
2022/03/03 09:22:51;;;;;;;31.57;13.47;;;4.10;99.90;3.30;100639;;;;560282;251;25193;-80
2022/03/03 09:25:18;;;;;;;47.00;18.43;;;4.20;99.90;3.30;100643;;;;569654;251;24114;-80
2022/03/03 09:27:46;;;;;;;24.87;11.37;;;4.20;99.90;3.40;100649;;;;569884;251;24114;-83
2022/03/03 09:30:14;;;;;;;16.70;9.27;;;4.30;99.90;3.50;100653;;;;569813;251;24158;-82
2022/03/03 09:32:42;;;;;;;22.77;10.27;;;4.40;99.90;3.50;100639;;;;569726;251;24143;-82
2022/03/03 09:35:10;;;;;;;19.87;8.67;;;4.50;99.90;3.50;100653;;;;569668;251;24157;-81
2022/03/03 09:37:42;;;;;;;17.93;8.60;;;4.50;99.90;3.50;100655;;;;569624;251;24162;-81
2022/03/03 09:40:06;;;;;;;18.60;8.43;;;4.50;99.90;3.50;100662;;;;560624;251;24169;-80
2022/03/03 09:42:35;;;;;;;19.63;8.20;;;4.40;99.90;3.40;100654;;;;569720;250;24145;-79
2022/03/03 09:45:03;;;;;;;22.07;9.33;;;4.40;99.90;3.40;100663;;;;561301;251;24161;-79
2022/03/03 09:47:34;;;;;;;22.87;8.57;;;4.30;99.90;3.40;100646;;;;561004;251;24210;-81
2022/03/03 09:49:58;;;;;;;21.80;13.15;;;4.30;99.90;3.40;100662;;;;555926;251;35510;-81
2022/03/03 09:52:30;;;;;;;21.60;10.67;;;4.40;99.90;3.50;100655;;;;569326;251;24141;-80
2022/03/03 09:54:55;;;;;;;21.47;9.90;;;4.40;99.90;3.50;100655;;;;569467;251;24153;-80
2022/03/03 09:57:26;;;;;;;19.77;9.80;;;4.50;99.90;3.50;100663;;;;569796;251;24169;-80
2022/03/03 09:59:53;;;;;;;20.93;10.57;;;4.50;99.90;3.40;100660;;;;566807;251;24167;-81
2022/03/03 10:02:22;;;;;;;20.07;8.50;;;4.40;99.90;3.50;100664;;;;571304;250;24186;-79
2022/03/03 10:04:51;;;;;;;20.13;10.33;;;4.50;99.90;3.50;100656;;;;571381;251;24130;-80
2022/03/03 10:07:19;;;;;;;17.53;9.80;;;4.50;99.90;3.50;100659;;;;559726;251;24172;-80
2022/03/03 10:10:10;;;;;;;25.13;10.43;;;4.50;99.90;3.50;100660;;;;570406;251;24136;-80
2022/03/03 10:12:31;;;;;;;28.10;13.95;;;4.50;99.90;3.60;100659;;;;554334;251;35543;-81
2022/03/03 10:14:58;;;;;;;22.07;11.50;;;4.50;99.90;3.60;100650;;;;569026;251;24136;-81
2022/03/03 10:17:41;;;;;;;14.27;8.90;;;4.60;99.90;3.70;100657;;;;570372;251;24171;-81
2022/03/03 10:20:07;;;;;;;23.07;10.60;;;4.70;99.90;3.80;100646;;;;561529;251;24145;-80
2022/03/03 10:23:00;;;;;;;22.08;13.68;;;4.90;99.90;4.00;100648;;;;555258;251;35461;-82
2022/03/03 10:25:18;;;;;;;25.00;10.03;;;4.90;99.90;4.40;100649;;;;570133;251;24137;-80
2022/03/03 10:27:46;;;;;;;16.23;8.10;;;5.20;99.90;4.60;100656;;;;569407;251;24149;-81
2022/03/03 10:30:15;;;;;;;16.37;8.00;;;5.50;99.90;4.70;100651;;;;570817;251;24126;-82
2022/03/03 10:32:42;;;;;;;13.53;7.30;;;5.60;99.90;4.80;100642;;;;570900;251;24123;-80
2022/03/03 10:35:15;;;;;;;15.63;7.30;;;5.80;99.90;4.90;100647;;;;571139;251;24106;-82
2022/03/03 10:37:46;;;;;;;14.70;8.17;;;5.90;99.90;5.00;100635;;;;570994;251;24110;-79
2022/03/03 10:40:12;;;;;;;14.60;8.00;;;5.90;99.90;5.00;100641;;;;570565;251;24121;-79
2022/03/03 10:42:39;;;;;;;20.27;8.07;;;5.90;99.90;5.10;100643;;;;570279;251;24173;-79
2022/03/03 10:45:11;;;;;;;9.97;7.13;;;6.00;99.90;5.20;100656;;;;570391;251;24232;-79
2022/03/03 10:47:35;;;;;;;17.13;8.20;;;6.10;99.90;5.40;100653;;;;570182;251;24128;-79
2022/03/03 10:50:07;;;;;;;13.00;6.73;;;6.30;99.90;5.50;100651;;;;570158;248;24174;-79
2022/03/03 10:52:32;;;;;;;16.40;8.43;;;6.30;99.90;5.40;100651;;;;569738;251;24112;-81
2022/03/03 10:55:05;;;;;;;17.63;7.80;;;6.40;99.90;5.50;100643;;;;570008;251;24129;-79
2022/03/03 10:57:35;;;;;;;15.73;6.83;;;6.40;99.90;5.60;100642;;;;561546;251;24161;-79
2022/03/03 11:00:03;;;;;;;12.50;7.40;;;6.50;99.90;5.70;100643;;;;570258;251;24117;-80
2022/03/03 11:02:31;;;;;;;13.80;7.57;;;6.80;99.90;5.90;100655;;;;560653;251;24129;-79
2022/03/03 11:05:03;;;;;;;12.77;7.40;;;6.70;99.90;6.00;100641;;;;571133;251;24104;-79
2022/03/03 11:07:28;;;;;;;13.50;6.33;;;6.90;99.90;6.10;100643;;;;558212;251;24137;-78
2022/03/03 11:09:56;;;;;;;12.87;6.63;;;6.90;99.90;6.10;100655;;;;569705;251;24178;-79
2022/03/03 11:12:28;;;;;;;12.10;7.37;;;7.00;99.90;6.30;100647;;;;570525;250;24129;-79
2022/03/03 11:14:56;;;;;;;12.47;7.23;;;7.10;99.90;6.40;100651;;;;562389;251;24115;-79
2022/03/03 11:17:20;;;;;;;9.77;6.53;;;7.20;99.90;6.50;100655;;;;572580;251;24114;-80
2022/03/03 11:19:50;;;;;;;15.67;6.47;;;7.30;99.90;6.60;100644;;;;570711;251;24185;-80